Time;durP1;ratioP1;P1;durP2;ratioP2;P2;SDS_P1;SDS_P2;PMS_P1;PMS_P2;Temp;Humidity;BMP_temperature;BMP_pressure;BME280_temperature;BME280_humidity;BME280_pressure;Samples;Min_cycle;Max_cycle;Signal;HPM_P1;HPM_P2
2022/10/22 00:00:30;;;;;;;20.48;13.07;;;12.50;99.90;;;;;;5044734;28;20072;-74
2022/10/22 00:02:56;;;;;;;23.83;13.43;;;12.50;99.90;;;;;;5042089;28;20065;-74
2022/10/22 00:05:22;;;;;;;21.08;13.20;;;12.30;99.90;;;;;;5044487;28;20033;-74
2022/10/22 00:07:47;;;;;;;24.17;13.85;;;12.40;99.90;;;;;;5026856;28;20053;-74
2022/10/22 00:10:13;;;;;;;21.20;12.07;;;12.30;99.90;;;;;;5043125;28;20055;-74
2022/10/22 00:12:39;;;;;;;21.23;12.50;;;12.30;99.90;;;;;;5041691;28;20086;-75
2022/10/22 00:15:05;;;;;;;21.20;12.85;;;12.20;99.90;;;;;;5043070;28;20220;-74
2022/10/22 00:17:31;;;;;;;20.73;12.65;;;12.10;99.90;;;;;;5026572;28;20057;-74
2022/10/22 00:19:57;;;;;;;26.20;13.68;;;12.40;99.90;;;;;;5044400;28;20087;-75
2022/10/22 00:22:22;;;;;;;26.60;13.90;;;12.20;99.90;;;;;;5043945;28;20136;-74
2022/10/22 00:24:48;;;;;;;19.10;12.77;;;12.20;99.90;;;;;;5043195;28;20084;-74
2022/10/22 00:27:14;;;;;;;24.13;13.98;;;12.10;99.90;;;;;;5026625;28;20057;-74
2022/10/22 00:29:39;;;;;;;23.45;14.25;;;12.10;99.90;;;;;;5042448;28;20092;-74
2022/10/22 00:32:06;;;;;;;25.38;13.73;;;12.10;99.90;;;;;;5042269;28;20384;-73
2022/10/22 00:34:32;;;;;;;20.08;13.25;;;12.10;99.90;;;;;;5044700;28;20087;-74
2022/10/22 00:36:58;;;;;;;19.85;13.88;;;12.00;99.90;;;;;;5031171;28;20048;-74
2022/10/22 00:39:25;;;;;;;25.60;14.02;;;12.20;99.90;;;;;;5046059;28;20049;-74
2022/10/22 00:41:52;;;;;;;24.05;13.95;;;12.20;99.90;;;;;;5046578;28;20151;-74
2022/10/22 00:44:56;;;;;;;22.10;13.82;;;12.10;99.90;;;;;;5045519;28;20075;-74
2022/10/22 00:47:23;;;;;;;23.23;14.55;;;12.10;99.90;;;;;;5028749;28;20494;-74
2022/10/22 00:49:50;;;;;;;20.45;13.57;;;12.20;99.90;;;;;;5046419;28;20099;-75
2022/10/22 00:52:16;;;;;;;26.38;14.65;;;12.10;99.90;;;;;;5045337;28;20045;-75
2022/10/22 00:54:42;;;;;;;23.70;14.05;;;12.00;99.90;;;;;;5048215;28;20072;-75
2022/10/22 00:57:08;;;;;;;21.98;14.48;;;12.00;99.90;;;;;;5031662;28;20043;-75
2022/10/22 00:59:35;;;;;;;20.63;14.15;;;12.10;99.90;;;;;;5047286;28;20587;-74
2022/10/22 01:02:01;;;;;;;27.48;14.57;;;11.90;99.90;;;;;;5045311;28;20086;-74
2022/10/22 01:04:26;;;;;;;25.75;14.38;;;11.90;99.90;;;;;;5046392;28;20045;-75
2022/10/22 01:06:52;;;;;;;24.67;14.15;;;12.00;99.90;;;;;;5030998;28;20049;-74
2022/10/22 01:09:34;;;;;;;24.60;14.65;;;12.00;99.90;;;;;;5044889;28;20091;-74
2022/10/22 01:12:26;;;;;;;23.83;14.30;;;12.00;99.90;;;;;;5045903;28;20044;-75
2022/10/22 01:15:20;;;;;;;23.10;14.07;;;12.00;99.90;;;;;;5044854;28;20424;-75
2022/10/22 01:17:54;;;;;;;24.55;13.98;;;12.00;99.90;;;;;;5027955;28;20048;-74
2022/10/22 01:20:38;;;;;;;22.90;14.25;;;11.90;99.90;;;;;;5029529;28;20049;-74
2022/10/22 01:23:34;;;;;;;22.63;13.73;;;11.90;99.90;;;;;;5042634;28;20055;-74
2022/10/22 01:26:41;;;;;;;21.00;13.48;;;11.90;99.90;;;;;;5045717;28;20130;-74
2022/10/22 01:29:22;;;;;;;26.10;13.65;;;12.00;99.90;;;;;;4985171;28;20543;-74
2022/10/22 01:32:16;;;;;;;23.65;13.48;;;11.90;99.90;;;;;;5004658;28;20053;-75
2022/10/22 01:34:45;;;;;;;18.90;11.95;;;12.00;99.90;;;;;;5033299;28;20059;-74
2022/10/22 01:37:14;;;;;;;19.77;12.35;;;12.00;99.90;;;;;;5031602;28;20223;-74
2022/10/22 01:39:43;;;;;;;22.30;12.68;;;11.90;99.90;;;;;;5046773;28;20045;-74
2022/10/22 01:42:11;;;;;;;21.20;11.80;;;11.90;99.90;;;;;;5046051;28;20516;-74
2022/10/22 01:44:37;;;;;;;20.38;11.35;;;12.00;99.90;;;;;;5045063;28;20064;-74
2022/10/22 01:47:17;;;;;;;19.92;11.63;;;12.00;99.90;;;;;;5030207;28;20045;-74
2022/10/22 01:49:58;;;;;;;20.73;11.40;;;11.90;99.90;;;;;;5045881;28;20048;-74
2022/10/22 01:52:35;;;;;;;21.13;11.27;;;11.90;99.90;;;;;;5039460;28;20081;-74
2022/10/22 01:55:37;;;;;;;23.23;11.65;;;11.80;99.90;;;;;;5046913;28;20286;-74
2022/10/22 01:58:21;;;;;;;20.58;12.02;;;11.90;99.90;;;;;;5030433;28;20451;-74
2022/10/22 02:01:03;;;;;;;21.52;11.75;;;11.80;99.90;;;;;;5045419;28;20057;-74
2022/10/22 02:03:39;;;;;;;24.17;11.23;;;11.70;99.90;;;;;;5044229;28;20045;-75
2022/10/22 02:06:13;;;;;;;18.98;12.02;;;11.80;99.90;;;;;;5045487;28;20044;-74
2022/10/22 02:08:40;;;;;;;20.58;12.18;;;12.00;99.90;;;;;;5021132;28;20454;-74
2022/10/22 02:11:06;;;;;;;25.38;12.70;;;12.10;99.90;;;;;;5046477;28;20048;-74
2022/10/22 02:13:45;;;;;;;24.80;12.23;;;12.10;99.90;;;;;;5027032;28;20044;-75
2022/10/22 02:16:17;;;;;;;22.40;12.02;;;12.10;99.90;;;;;;5037920;28;20063;-74
2022/10/22 02:18:45;;;;;;;19.55;11.43;;;12.00;99.90;;;;;;5039318;28;20080;-75
2022/10/22 02:21:11;;;;;;;20.30;11.60;;;12.20;99.90;;;;;;5044948;28;20510;-75
2022/10/22 02:23:37;;;;;;;18.90;11.27;;;12.10;99.90;;;;;;5027283;28;20503;-74
2022/10/22 02:26:26;;;;;;;19.23;11.23;;;12.10;99.90;;;;;;5041787;28;20538;-74
2022/10/22 02:29:01;;;;;;;22.30;11.63;;;12.20;99.90;;;;;;5041742;28;20494;-74
2022/10/22 02:31:33;;;;;;;17.98;11.45;;;12.20;99.90;;;;;;5046776;28;20091;-74
2022/10/22 02:34:04;;;;;;;20.27;11.20;;;12.30;99.90;;;;;;5042571;28;20049;-75
2022/10/22 02:36:30;;;;;;;17.92;10.55;;;12.40;99.90;;;;;;5032313;28;20044;-74
2022/10/22 02:38:57;;;;;;;20.67;11.23;;;12.30;99.90;;;;;;5025895;28;20496;-75
2022/10/22 02:41:23;;;;;;;20.60;10.57;;;12.30;99.90;;;;;;5044402;28;20083;-75
2022/10/22 02:43:54;;;;;;;23.05;12.10;;;12.30;99.90;;;;;;5044871;28;20060;-75
2022/10/22 02:46:20;;;;;;;20.92;12.23;;;12.30;99.90;;;;;;5031298;28;20060;-74
2022/10/22 02:48:46;;;;;;;20.15;11.70;;;12.20;99.90;;;;;;5040090;28;20081;-75
2022/10/22 02:51:11;;;;;;;18.88;12.20;;;12.10;99.90;;;;;;5044028;28;20092;-74
2022/10/22 02:53:37;;;;;;;20.95;11.88;;;12.10;99.90;;;;;;5026484;28;20055;-74
2022/10/22 02:56:03;;;;;;;25.90;12.43;;;12.10;99.90;;;;;;5044166;28;20052;-74
2022/10/22 02:58:29;;;;;;;20.75;12.85;;;12.30;99.90;;;;;;5027073;28;20037;-74
2022/10/22 03:00:55;;;;;;;19.77;12.65;;;12.30;99.90;;;;;;5044130;28;20049;-75
2022/10/22 03:03:20;;;;;;;21.92;12.45;;;12.30;99.90;;;;;;5042855;28;20041;-74
2022/10/22 03:05:46;;;;;;;19.52;12.88;;;12.40;99.90;;;;;;5044029;28;20056;-75
2022/10/22 03:08:11;;;;;;;22.65;13.45;;;12.30;99.90;;;;;;5028875;28;20040;-75
2022/10/22 03:10:37;;;;;;;22.00;12.50;;;12.40;99.90;;;;;;5043445;28;20040;-75
2022/10/22 03:13:03;;;;;;;22.17;12.30;;;12.20;99.90;;;;;;5043088;28;20079;-74
2022/10/22 03:15:28;;;;;;;24.98;12.35;;;12.30;99.90;;;;;;5043776;28;20132;-74
2022/10/22 03:17:54;;;;;;;21.10;12.43;;;12.30;99.90;;;;;;5027350;28;20079;-74
2022/10/22 03:20:20;;;;;;;22.20;12.50;;;12.30;99.90;;;;;;5043514;28;20056;-75
2022/10/22 03:22:48;;;;;;;22.75;12.10;;;12.30;99.90;;;;;;5041897;28;20049;-75
2022/10/22 03:25:19;;;;;;;21.40;12.10;;;12.20;99.90;;;;;;5044821;28;20064;-74
2022/10/22 03:27:45;;;;;;;;;;;12.40;99.90;;;;;;5026783;28;20165;-74
2022/10/22 03:30:11;;;;;;;23.67;11.80;;;12.60;99.90;;;;;;5044595;28;20371;-75
2022/10/22 03:32:37;;;;;;;18.33;11.70;;;12.40;99.90;;;;;;5043053;28;20483;-74
2022/10/22 03:35:04;;;;;;;17.77;10.95;;;12.50;99.90;;;;;;5043149;28;20771;-74
2022/10/22 03:37:30;;;;;;;21.90;10.85;;;12.40;99.90;;;;;;5027962;28;20557;-75
2022/10/22 03:39:56;;;;;;;21.42;11.10;;;12.30;99.90;;;;;;5043101;28;20041;-74
2022/10/22 03:42:22;;;;;;;18.60;11.20;;;12.30;99.90;;;;;;5042566;28;20080;-74
2022/10/22 03:44:48;;;;;;;23.52;11.40;;;12.20;99.90;;;;;;5043245;28;20079;-75
2022/10/22 03:47:14;;;;;;;23.08;11.45;;;12.30;99.90;;;;;;5026545;28;20092;-75
2022/10/22 03:49:39;;;;;;;20.25;11.07;;;12.20;99.90;;;;;;5041385;28;20040;-75
2022/10/22 03:52:07;;;;;;;19.17;10.90;;;12.20;99.90;;;;;;5042359;28;20045;-75
2022/10/22 03:54:32;;;;;;;21.00;11.15;;;12.10;99.90;;;;;;5042902;28;20462;-75
2022/10/22 03:56:58;;;;;;;23.45;11.25;;;12.10;99.90;;;;;;5029620;28;20045;-75
2022/10/22 03:59:24;;;;;;;22.13;11.48;;;12.10;99.90;;;;;;5043393;28;20511;-75
2022/10/22 04:01:49;;;;;;;20.35;11.68;;;12.00;99.90;;;;;;5044586;28;20056;-74
2022/10/22 04:04:15;;;;;;;19.02;11.45;;;12.10;99.90;;;;;;5040018;28;20048;-74
2022/10/22 04:06:40;;;;;;;24.77;12.55;;;12.00;99.90;;;;;;5017459;28;20676;-75
2022/10/22 04:09:06;;;;;;;22.08;11.82;;;12.00;99.90;;;;;;5040977;28;20051;-74
2022/10/22 04:11:32;;;;;;;20.58;11.23;;;11.80;99.90;;;;;;5046769;28;20132;-74
2022/10/22 04:13:57;;;;;;;21.80;12.65;;;11.90;99.90;;;;;;5046028;28;20156;-75
2022/10/22 04:16:23;;;;;;;26.13;12.05;;;11.90;99.90;;;;;;5016235;28;20048;-74
2022/10/22 04:18:49;;;;;;;20.25;11.45;;;12.00;99.90;;;;;;5041942;28;20154;-75
2022/10/22 04:21:18;;;;;;;23.10;11.52;;;11.90;99.90;;;;;;5046866;28;20848;-75
2022/10/22 04:23:48;;;;;;;23.17;12.25;;;11.80;99.90;;;;;;5046925;28;20056;-75
2022/10/22 04:26:16;;;;;;;19.75;11.52;;;11.80;99.90;;;;;;5038813;28;20574;-74
2022/10/22 04:32:23;;;;;;;22.45;11.75;;;12.00;99.90;;;;;;5047302;28;20067;-74
2022/10/22 04:34:49;;;;;;;22.17;12.23;;;11.90;99.90;;;;;;5031627;28;20127;-75
2022/10/22 04:37:14;;;;;;;33.28;17.90;;;11.90;99.90;;;;;;5026561;28;20059;-74
2022/10/22 04:39:40;;;;;;;27.50;12.10;;;11.70;99.90;;;;;;5044689;28;20477;-75
2022/10/22 04:42:05;;;;;;;23.55;12.32;;;11.90;99.90;;;;;;5037933;28;20434;-74
2022/10/22 04:44:31;;;;;;;22.92;12.48;;;11.80;99.90;;;;;;5023710;28;20057;-75
2022/10/22 04:46:57;;;;;;;25.42;12.65;;;11.80;99.90;;;;;;5026662;28;20450;-75
2022/10/22 04:49:22;;;;;;;26.33;12.15;;;11.80;99.90;;;;;;5040951;28;20151;-74
2022/10/22 04:51:48;;;;;;;27.17;13.60;;;11.80;99.90;;;;;;5009206;28;20056;-74
2022/10/22 04:54:14;;;;;;;25.45;13.68;;;11.90;99.90;;;;;;5029610;28;20872;-74
2022/10/22 04:56:39;;;;;;;22.60;12.50;;;11.70;99.90;;;;;;5012797;28;20117;-74
2022/10/22 04:59:06;;;;;;;24.90;16.13;;;11.70;99.90;;;;;;5041411;28;20051;-74
2022/10/22 05:01:35;;;;;;;25.55;13.65;;;11.80;99.90;;;;;;5042136;28;20143;-74
2022/10/22 05:04:03;;;;;;;30.05;17.80;;;11.80;99.90;;;;;;5038930;28;20057;-74
2022/10/22 05:06:30;;;;;;;33.25;19.38;;;11.80;99.90;;;;;;5030687;28;20371;-74
2022/10/22 05:08:59;;;;;;;22.98;14.60;;;11.90;99.90;;;;;;5037978;28;20045;-74
2022/10/22 05:11:32;;;;;;;29.40;18.50;;;12.00;99.90;;;;;;5052556;28;20048;-74
2022/10/22 05:13:59;;;;;;;26.27;15.02;;;11.80;99.90;;;;;;5032284;28;20057;-74
2022/10/22 05:16:26;;;;;;;31.30;17.95;;;11.90;99.90;;;;;;5041684;28;20214;-74
2022/10/22 05:18:52;;;;;;;25.30;13.73;;;11.90;99.90;;;;;;5048697;28;20049;-74
2022/10/22 05:21:19;;;;;;;31.33;19.15;;;11.90;99.90;;;;;;5047411;28;20438;-74
2022/10/22 05:23:47;;;;;;;27.42;13.45;;;11.80;99.90;;;;;;5052495;28;20056;-75
2022/10/22 05:26:15;;;;;;;28.85;14.73;;;12.10;99.90;;;;;;5038201;28;20416;-74
2022/10/22 05:28:41;;;;;;;22.42;12.20;;;11.90;99.90;;;;;;5020930;28;20044;-74
2022/10/22 05:31:09;;;;;;;23.63;12.63;;;11.90;99.90;;;;;;5049365;28;20084;-74
2022/10/22 05:33:35;;;;;;;23.58;12.45;;;12.00;99.90;;;;;;5060190;28;20052;-74
2022/10/22 05:36:02;;;;;;;25.95;13.38;;;11.90;99.90;;;;;;5061872;28;20101;-74
2022/10/22 05:38:28;;;;;;;26.23;14.02;;;12.00;99.90;;;;;;5045921;28;20056;-74
2022/10/22 05:41:09;;;;;;;20.40;12.38;;;11.90;99.90;;;;;;5062681;28;20048;-75
2022/10/22 05:43:35;;;;;;;26.23;13.98;;;12.00;99.90;;;;;;5052439;28;20052;-75
2022/10/22 05:46:07;;;;;;;25.25;13.35;;;11.90;99.90;;;;;;5051997;28;20056;-74
2022/10/22 05:48:33;;;;;;;26.77;14.30;;;11.90;99.90;;;;;;5031114;28;20130;-75
2022/10/22 05:51:10;;;;;;;21.88;12.73;;;12.00;99.90;;;;;;5041051;28;20712;-75
2022/10/22 05:53:38;;;;;;;28.13;13.40;;;11.90;99.90;;;;;;5070573;28;20073;-74
2022/10/22 05:56:11;;;;;;;22.33;12.90;;;11.90;99.90;;;;;;5026492;28;20057;-74
2022/10/22 05:58:37;;;;;;;20.08;12.88;;;12.00;99.90;;;;;;5006521;28;20048;-75
2022/10/22 06:01:10;;;;;;;21.95;13.38;;;12.10;99.90;;;;;;5052703;28;20165;-74
2022/10/22 06:03:36;;;;;;;32.58;16.67;;;12.10;99.90;;;;;;5041951;28;20106;-74
2022/10/22 06:06:06;;;;;;;24.35;13.57;;;12.10;99.90;;;;;;5031625;28;20413;-74
2022/10/22 06:08:32;;;;;;;22.60;12.60;;;12.10;99.90;;;;;;5037724;28;20055;-74
2022/10/22 06:10:58;;;;;;;23.48;12.02;;;12.10;99.90;;;;;;5049616;28;20048;-75
2022/10/22 06:13:24;;;;;;;27.65;13.93;;;12.10;99.90;;;;;;5048659;28;20083;-74
2022/10/22 06:15:52;;;;;;;23.20;13.85;;;12.10;99.90;;;;;;5060812;28;20095;-74
2022/10/22 06:18:18;;;;;;;24.63;12.68;;;11.90;99.90;;;;;;5016904;28;20099;-74
2022/10/22 06:20:44;;;;;;;22.90;12.82;;;12.00;99.90;;;;;;5040110;28;20074;-74
2022/10/22 06:23:10;;;;;;;20.67;12.27;;;12.10;99.90;;;;;;5073200;28;20080;-75
2022/10/22 06:29:17;;;;;;;23.08;11.80;;;12.10;99.90;;;;;;5022399;28;20643;-74
2022/10/22 06:31:43;;;;;;;25.25;12.60;;;12.20;99.90;;;;;;5032373;28;20064;-75
2022/10/22 06:34:13;;;;;;;20.50;12.10;;;12.10;99.90;;;;;;5033845;28;20632;-74
2022/10/22 06:36:42;;;;;;;23.25;13.15;;;12.10;99.90;;;;;;5022773;28;20085;-75
2022/10/22 06:39:11;;;;;;;25.63;12.02;;;12.10;99.90;;;;;;5026278;28;20464;-74
2022/10/22 06:41:36;;;;;;;21.13;12.32;;;12.20;99.90;;;;;;5035656;28;20048;-75
2022/10/22 06:44:02;;;;;;;22.02;13.13;;;12.20;99.90;;;;;;5036869;28;20049;-74
2022/10/22 06:46:28;;;;;;;24.27;13.20;;;12.10;99.90;;;;;;5025422;28;20249;-74
2022/10/22 06:48:59;;;;;;;25.42;12.85;;;12.10;99.90;;;;;;5035075;28;20048;-74
2022/10/22 06:51:26;;;;;;;21.48;12.65;;;12.20;99.90;;;;;;4110104;28;10000490;-74
2022/10/22 06:53:53;;;;;;;21.23;12.55;;;12.20;99.90;;;;;;5018041;28;20047;-74
2022/10/22 07:00:00;;;;;;;21.42;11.95;;;12.30;99.90;;;;;;5039260;28;20499;-73
2022/10/22 07:02:25;;;;;;;24.67;13.05;;;12.30;99.90;;;;;;4125504;28;10000957;-74
2022/10/22 07:04:51;;;;;;;18.75;12.23;;;12.30;99.90;;;;;;4140618;28;10000155;-74
2022/10/22 07:07:17;;;;;;;21.35;12.35;;;12.40;99.90;;;;;;4990604;28;20049;-74
2022/10/22 07:09:45;;;;;;;22.63;12.90;;;12.50;99.90;;;;;;5043236;28;20156;-74
2022/10/22 07:12:12;;;;;;;21.88;11.35;;;12.50;99.90;;;;;;5019833;28;20088;-74
2022/10/22 07:14:38;;;;;;;21.15;12.27;;;12.50;99.90;;;;;;5042707;28;20186;-73
2022/10/22 07:17:03;;;;;;;24.48;12.27;;;12.60;99.90;;;;;;5025046;28;20072;-73
2022/10/22 07:19:30;;;;;;;20.05;12.20;;;12.50;99.90;;;;;;5038125;28;20052;-73
2022/10/22 07:21:56;;;;;;;22.98;11.82;;;12.70;99.90;;;;;;5042925;28;20053;-73
2022/10/22 07:24:21;;;;;;;21.67;11.52;;;12.70;99.90;;;;;;5032462;28;20111;-74
2022/10/22 07:26:47;;;;;;;20.45;11.38;;;12.70;99.90;;;;;;5032249;28;20438;-73
2022/10/22 07:29:14;;;;;;;23.17;11.57;;;12.60;99.90;;;;;;5039677;28;20954;-73
2022/10/22 07:31:40;;;;;;;25.85;11.90;;;12.80;99.90;;;;;;5029008;28;20124;-73
2022/10/22 07:34:06;;;;;;;20.27;11.82;;;12.70;99.90;;;;;;5045550;28;20506;-73
2022/10/22 07:36:32;;;;;;;17.70;10.57;;;12.70;99.90;;;;;;5028012;28;20074;-73
2022/10/22 07:38:58;;;;;;;20.27;12.68;;;12.70;99.90;;;;;;5035445;28;20083;-73
2022/10/22 07:41:26;;;;;;;20.27;12.20;;;12.80;99.90;;;;;;5036232;28;20083;-73
2022/10/22 07:43:52;;;;;;;22.15;13.25;;;12.80;99.90;;;;;;5044845;28;20053;-73
2022/10/22 07:46:18;;;;;;;20.48;12.10;;;13.00;99.90;;;;;;5035232;28;20091;-73
2022/10/22 07:48:44;;;;;;;23.58;12.18;;;12.90;99.90;;;;;;5040880;28;20052;-72
2022/10/22 07:51:10;;;;;;;22.17;12.23;;;13.00;99.90;;;;;;5046561;28;20052;-74
2022/10/22 07:53:36;;;;;;;35.08;19.52;;;12.90;99.90;;;;;;5059943;28;20037;-73
2022/10/22 07:56:02;;;;;;;23.15;13.77;;;13.10;99.90;;;;;;5048318;28;20508;-74
2022/10/22 07:58:28;;;;;;;21.80;11.13;;;13.00;99.90;;;;;;5031497;28;20037;-73
2022/10/22 08:00:59;;;;;;;18.52;10.18;;;13.10;99.90;;;;;;5048041;28;20036;-74
2022/10/22 08:03:26;;;;;;;20.90;11.65;;;13.10;99.90;;;;;;5046668;28;20385;-74
2022/10/22 08:05:54;;;;;;;18.95;10.43;;;13.20;99.90;;;;;;5030386;28;20141;-73
2022/10/22 08:08:20;;;;;;;19.27;10.88;;;13.20;99.90;;;;;;5035648;28;20504;-73
2022/10/22 08:10:47;;;;;;;22.33;11.65;;;13.20;99.90;;;;;;5055366;28;20045;-72
2022/10/22 08:13:14;;;;;;;17.98;10.15;;;13.20;99.90;;;;;;5024389;28;20053;-74
2022/10/22 08:15:41;;;;;;;20.33;11.93;;;13.30;99.90;;;;;;5058215;28;20087;-74
2022/10/22 08:18:08;;;;;;;26.83;11.15;;;13.30;99.90;;;;;;5040439;28;20053;-74
2022/10/22 08:20:33;;;;;;;18.38;9.70;;;13.40;99.90;;;;;;5046295;28;20049;-75
2022/10/22 08:22:59;;;;;;;17.52;10.48;;;13.40;99.90;;;;;;5046919;28;20060;-74
2022/10/22 08:25:25;;;;;;;16.23;9.07;;;13.50;99.90;;;;;;5044458;28;20057;-74
2022/10/22 08:27:51;;;;;;;24.30;10.88;;;13.50;99.90;;;;;;5024889;28;20074;-74
2022/10/22 08:30:17;;;;;;;20.52;8.32;;;13.50;99.90;;;;;;5047489;28;20057;-74
2022/10/22 08:32:43;;;;;;;19.15;8.40;;;13.50;99.90;;;;;;5066362;28;20048;-74
2022/10/22 08:35:08;;;;;;;17.75;8.48;;;13.60;99.90;;;;;;5056363;28;20044;-73
2022/10/22 08:37:34;;;;;;;16.55;7.95;;;13.70;99.90;;;;;;5031021;28;20052;-74
2022/10/22 08:40:00;;;;;;;15.93;7.90;;;13.80;99.90;;;;;;5039112;28;20543;-74
2022/10/22 08:42:34;;;;;;;18.02;7.80;;;13.90;99.90;;;;;;5025976;28;20046;-74
2022/10/22 08:45:18;;;;;;;17.55;7.32;;;14.00;99.90;;;;;;5034266;28;20347;-74
2022/10/22 08:48:09;;;;;;;19.70;7.97;;;14.00;99.90;;;;;;5017725;28;20038;-74
2022/10/22 08:50:42;;;;;;;16.30;6.80;;;14.10;99.90;;;;;;5033613;28;20681;-73
2022/10/22 08:53:38;;;;;;;15.80;6.60;;;14.30;99.90;;;;;;5007772;28;20072;-74
2022/10/22 08:56:04;;;;;;;16.40;6.05;;;14.30;99.90;;;;;;5041853;28;20629;-74
2022/10/22 08:58:34;;;;;;;18.83;6.70;;;14.30;99.90;;;;;;5029877;28;20049;-74
2022/10/22 09:01:29;;;;;;;15.57;6.30;;;14.50;99.90;;;;;;5046445;28;20048;-74
2022/10/22 09:04:09;;;;;;;13.18;6.28;;;14.50;99.90;;;;;;5035181;28;20402;-74
2022/10/22 09:06:38;;;;;;;14.67;6.50;;;14.60;99.90;;;;;;5018097;28;20440;-74
2022/10/22 09:09:16;;;;;;;13.93;5.97;;;14.70;99.90;;;;;;5026106;28;20822;-74
2022/10/22 09:11:48;;;;;;;17.20;6.70;;;14.80;99.90;;;;;;5040733;28;20553;-74
2022/10/22 09:14:20;;;;;;;14.43;6.05;;;14.90;99.90;;;;;;5049895;28;20041;-74
2022/10/22 09:16:56;;;;;;;;;;;15.00;99.90;;;;;;4989611;28;20053;-74
2022/10/22 09:19:38;;;;;;;19.73;5.53;;;15.00;99.90;;;;;;5043926;28;19920;-74
2022/10/22 09:22:37;;;;;;;16.98;5.97;;;15.00;99.90;;;;;;5044358;28;20051;-74
2022/10/22 09:25:20;;;;;;;15.60;5.00;;;15.20;99.90;;;;;;4985044;28;20079;-74
2022/10/22 09:27:47;;;;;;;16.42;5.60;;;15.10;99.90;;;;;;5027154;28;20060;-74
2022/10/22 09:30:16;;;;;;;13.75;5.50;;;15.40;99.90;;;;;;5044575;28;20060;-75
2022/10/22 09:32:42;;;;;;;15.75;4.82;;;15.30;99.90;;;;;;5045417;28;20594;-74
2022/10/22 09:35:11;;;;;;;14.82;5.38;;;15.30;99.90;;;;;;5046399;28;20051;-74
2022/10/22 09:37:50;;;;;;;13.55;4.88;;;15.30;99.90;;;;;;5028672;28;20048;-74
2022/10/22 09:40:16;;;;;;;13.60;4.75;;;15.20;99.90;;;;;;5049142;28;20552;-74
2022/10/22 09:42:44;;;;;;;20.30;8.38;;;15.20;99.90;;;;;;5046329;28;20055;-73
2022/10/22 09:45:24;;;;;;;22.42;9.73;;;15.20;99.90;;;;;;5046108;28;20837;-74
2022/10/22 09:48:02;;;;;;;14.18;5.28;;;15.30;99.90;;;;;;5028100;28;20049;-74
2022/10/22 09:50:46;;;;;;;18.23;5.40;;;15.20;99.90;;;;;;5044717;28;20606;-74
2022/10/22 09:53:16;;;;;;;13.75;5.13;;;15.20;99.90;;;;;;5054472;28;20498;-74
2022/10/22 09:55:42;;;;;;;16.48;5.28;;;15.20;99.90;;;;;;5043312;28;20854;-74
2022/10/22 09:58:11;;;;;;;9.90;4.60;;;15.20;99.90;;;;;;5029408;28;20044;-74
2022/10/22 10:00:44;;;;;;;14.18;4.93;;;15.20;99.90;;;;;;5044683;28;20037;-74
2022/10/22 10:03:20;;;;;;;13.70;4.95;;;15.20;99.90;;;;;;5037666;28;20076;-74
2022/10/22 10:05:51;;;;;;;20.25;5.00;;;15.30;99.90;;;;;;5047587;28;20072;-74
2022/10/22 10:08:17;;;;;;;16.42;5.60;;;15.40;99.90;;;;;;5044808;28;20550;-74
2022/10/22 10:10:51;;;;;;;16.25;5.32;;;15.30;99.90;;;;;;5050290;28;20583;-74
2022/10/22 10:13:49;;;;;;;16.58;5.47;;;15.30;99.90;;;;;;5046353;28;20045;-74
2022/10/22 10:16:35;;;;;;;14.90;5.97;;;15.40;99.90;;;;;;5037997;28;20088;-74
2022/10/22 10:19:20;;;;;;;12.15;5.20;;;15.50;99.90;;;;;;5026552;28;20041;-74
2022/10/22 10:21:55;;;;;;;12.88;4.82;;;15.60;99.90;;;;;;5046474;28;20060;-74
2022/10/22 10:24:46;;;;;;;16.85;5.20;;;15.60;99.90;;;;;;5045532;28;20060;-73
2022/10/22 10:27:19;;;;;;;12.80;5.22;;;15.80;99.90;;;;;;5028298;28;20140;-75
2022/10/22 10:30:02;;;;;;;12.57;4.93;;;15.80;99.90;;;;;;5047665;28;20053;-74
2022/10/22 10:32:53;;;;;;;13.20;5.03;;;15.70;99.90;;;;;;5045289;28;20577;-74
2022/10/22 10:35:45;;;;;;;13.73;5.68;;;15.70;99.90;;;;;;5048302;28;20056;-74
2022/10/22 10:38:26;;;;;;;14.20;5.28;;;15.60;99.90;;;;;;5028775;28;20061;-74
2022/10/22 10:41:06;;;;;;;14.13;5.22;;;15.50;99.90;;;;;;5047957;28;20045;-74
2022/10/22 10:43:47;;;;;;;18.53;5.47;;;15.50;99.90;;;;;;5047169;28;20051;-74
2022/10/22 10:46:28;;;;;;;15.07;5.60;;;15.50;99.90;;;;;;5033225;28;20283;-74
2022/10/22 10:49:20;;;;;;;17.73;5.93;;;15.50;99.90;;;;;;5044477;28;20056;-74
2022/10/22 10:52:09;;;;;;;14.45;5.43;;;15.50;99.90;;;;;;5023929;28;20064;-74
2022/10/22 10:54:49;;;;;;;20.23;5.93;;;15.50;99.90;;;;;;5046061;28;20098;-74
2022/10/22 10:57:20;;;;;;;14.38;5.78;;;15.50;99.90;;;;;;5064397;28;20500;-74
2022/10/22 11:00:00;;;;;;;19.63;5.60;;;15.50;99.90;;;;;;5048127;28;20049;-74
2022/10/22 11:02:43;;;;;;;14.18;4.93;;;15.40;99.90;;;;;;5058743;28;20496;-73
2022/10/22 11:05:37;;;;;;;13.40;5.15;;;15.50;99.90;;;;;;5081320;28;20057;-74
2022/10/22 11:08:24;;;;;;;12.98;5.47;;;15.50;99.90;;;;;;5014518;28;20051;-74
2022/10/22 11:11:02;;;;;;;8.82;4.50;;;15.50;99.90;;;;;;5047008;28;20080;-74
2022/10/22 11:13:37;;;;;;;12.43;4.95;;;15.60;99.90;;;;;;5046436;28;20049;-74
2022/10/22 11:16:15;;;;;;;16.08;4.53;;;15.70;99.90;;;;;;5047038;28;20126;-73
2022/10/22 11:18:43;;;;;;;10.30;3.95;;;15.80;99.90;;;;;;5041632;28;20523;-74
2022/10/22 11:21:16;;;;;;;12.05;4.38;;;15.90;99.90;;;;;;5052952;28;20049;-74
2022/10/22 11:23:49;;;;;;;10.57;4.68;;;16.00;99.90;;;;;;5065371;28;20553;-74
2022/10/22 11:26:28;;;;;;;8.60;3.75;;;16.10;99.90;;;;;;5047539;28;20059;-74
2022/10/22 11:28:57;;;;;;;8.52;4.60;;;16.20;99.90;;;;;;5064031;28;20048;-74
2022/10/22 11:31:24;;;;;;;12.50;5.18;;;16.20;99.90;;;;;;5068337;28;20059;-74
2022/10/22 11:33:59;;;;;;;10.60;5.28;;;16.10;99.90;;;;;;5067266;28;20060;-74
2022/10/22 11:36:27;;;;;;;10.65;5.90;;;15.90;99.90;;;;;;5036866;28;20483;-74
2022/10/22 11:38:53;;;;;;;14.68;6.57;;;15.80;99.90;;;;;;5038465;28;20085;-73
2022/10/22 11:41:23;;;;;;;16.88;6.53;;;15.70;99.90;;;;;;5057114;28;20098;-74
2022/10/22 11:44:09;;;;;;;18.33;6.88;;;15.80;99.90;;;;;;5044422;28;20566;-75
2022/10/22 11:46:45;;;;;;;12.57;6.60;;;15.60;99.90;;;;;;5014848;28;20044;-74
2022/10/22 11:49:14;;;;;;;17.13;7.15;;;15.60;99.90;;;;;;5048718;28;20652;-74
2022/10/22 11:51:42;;;;;;;13.50;7.00;;;15.40;99.90;;;;;;5051801;28;85063;-74
2022/10/22 11:54:36;;;;;;;15.73;7.38;;;15.30;99.90;;;;;;5047785;28;20120;-74
2022/10/22 11:57:27;;;;;;;13.05;7.68;;;15.30;99.90;;;;;;5023412;28;20566;-74
2022/10/22 11:59:57;;;;;;;16.15;6.90;;;15.20;99.90;;;;;;5030796;28;20049;-74
2022/10/22 12:02:43;;;;;;;16.80;7.45;;;15.20;99.90;;;;;;5054063;28;20152;-74
2022/10/22 12:05:21;;;;;;;13.88;7.32;;;15.30;99.90;;;;;;5056490;28;20381;-74
2022/10/22 12:07:53;;;;;;;16.92;7.00;;;15.30;99.90;;;;;;5049279;28;20127;-74
2022/10/22 12:10:21;;;;;;;16.55;7.57;;;15.30;99.90;;;;;;5047788;28;20067;-74
2022/10/22 12:13:04;;;;;;;13.85;7.80;;;15.20;99.90;;;;;;5038007;28;20611;-74
2022/10/22 12:15:29;;;;;;;14.98;6.75;;;15.20;99.90;;;;;;5026596;28;20554;-74
2022/10/22 12:18:00;;;;;;;16.50;7.95;;;15.10;99.90;;;;;;5023695;28;20053;-74
2022/10/22 12:20:27;;;;;;;18.15;8.77;;;15.10;99.90;;;;;;5024636;28;20127;-74
2022/10/22 12:22:55;;;;;;;20.58;8.05;;;15.10;99.90;;;;;;5037960;28;20044;-73
2022/10/22 12:25:25;;;;;;;19.05;9.07;;;15.10;99.90;;;;;;5052305;28;20075;-74
2022/10/22 12:27:53;;;;;;;15.60;8.77;;;15.10;99.90;;;;;;5041481;28;20044;-74
2022/10/22 12:30:25;;;;;;;16.88;8.57;;;15.20;99.90;;;;;;5058478;28;20044;-74
2022/10/22 12:32:52;;;;;;;;;;;15.20;99.90;;;;;;5060931;28;20550;-74
2022/10/22 12:35:21;;;;;;;21.90;8.73;;;15.30;99.90;;;;;;5059117;28;20601;-74
2022/10/22 12:37:53;;;;;;;19.77;6.85;;;15.30;99.90;;;;;;5050674;28;20079;-73
2022/10/22 12:40:20;;;;;;;18.52;7.63;;;15.30;99.90;;;;;;5069955;28;20052;-74
2022/10/22 12:43:19;;;;;;;21.60;7.18;;;15.30;99.90;;;;;;5056415;28;20049;-74
2022/10/22 12:45:47;;;;;;;13.68;6.53;;;15.30;99.90;;;;;;5024878;28;20119;-74
2022/10/22 12:48:28;;;;;;;18.98;5.80;;;15.50;99.90;;;;;;5028567;28;20434;-74
2022/10/22 12:50:59;;;;;;;11.10;4.43;;;15.60;99.90;;;;;;5046459;28;20065;-73
2022/10/22 12:53:36;;;;;;;14.88;4.10;;;15.60;99.90;;;;;;5045663;28;20049;-74
2022/10/22 12:56:10;;;;;;;12.30;3.55;;;15.80;99.90;;;;;;5050083;28;20061;-75
2022/10/22 12:58:41;;;;;;;13.70;3.88;;;15.90;99.90;;;;;;5031205;28;20041;-74
2022/10/22 13:01:09;;;;;;;12.05;4.07;;;15.90;99.90;;;;;;5049940;28;20057;-74